Oglasa — ITMG — position and weather

sailwx.info

Track history (hours):
 
Tides and Currents Weather Stations Pressure Air Temp Water Temp Dewpoint Dewpoint Depression Visibility Wind Speed Wind Dir Waves Ship Positions

Oglasa

Last reported at 2014-Aug-30 15:34 UTC. Time now 2014-Aug-30 16:30 UTC.
Position N 42°53' E 010°28'.

Length 91 m; draft 3.6 m.

Type: Ship. MMSI: 247046800.

Date/timePositionNaut miles runAvg speedWind from/ knotsBaromVisibWave heightAir tempDewpointWater temp
2014-Aug-30 15:34N 42°53' E 010°28'8 6.7
2014-Aug-30 14:24N 42°49' E 010°19'1314.9
2014-Aug-30 13:33N 42°56' E 010°33'5 4.9
2014-Aug-30 12:33N 42°53' E 010°28'8 6.8
2014-Aug-30 11:26N 42°49' E 010°19'8 4.1
2014-Aug-30 09:33N 42°53' E 010°28'8 7.3
2014-Aug-30 08:30N 42°49' E 010°19'6 3.3
2014-Aug-30 06:34N 42°53' E 010°26'7 6.6
2014-Aug-30 05:33N 42°49' E 010°19'7 3.6
2014-Aug-30 03:33N 42°53' E 010°27'7 6.4
2014-Aug-30 02:26N 42°49' E 010°19'0 0.0
2014-Aug-30 01:33N 42°49' E 010°19'0 0.0
2014-Aug-30 00:33N 42°49' E 010°19'0 0.0
2014-Aug-29 22:32N 42°49' E 010°19'0 0.0
2014-Aug-29 21:33N 42°49' E 010°19'0 0.0
2014-Aug-29 20:28N 42°49' E 010°19'0 0.0
2014-Aug-29 19:32N 42°49' E 010°19'0 0.0
2014-Aug-29 18:25N 42°49' E 010°19'0 0.0
2014-Aug-29 17:27N 42°49' E 010°19'7 3.7
2014-Aug-29 15:34N 42°53' E 010°27'7 5.7
2014-Aug-29 14:23N 42°49' E 010°20'7 3.7
2014-Aug-29 12:34N 42°53' E 010°27'7 6.8
2014-Aug-29 11:31N 42°49' E 010°19'7 3.8
2014-Aug-29 09:34N 42°53' E 010°27'7 6.7
2014-Aug-29 08:27N 42°49' E 010°19'0 0.0
2014-Aug-28 15:26N 42°49' E 010°19'7 3.7
2014-Aug-28 13:33N 42°53' E 010°26'7 6.3
2014-Aug-28 12:28N 42°49' E 010°19'7 3.9
2014-Aug-28 10:33N 42°53' E 010°27'7 6.8
2014-Aug-28 09:28N 42°49' E 010°19'6 2.2
2014-Aug-28 06:34N 42°53' E 010°26'4 3.2
2014-Aug-28 05:15N 42°50' E 010°22'0 0.1
2014-Aug-28 03:13N 42°50' E 010°21'2 0.3
2014-Aug-27 19:30N 42°49' E 010°19'0 0.0
2014-Aug-27 18:34N 42°49' E 010°19'0 0.0
2014-Aug-27 17:33N 42°49' E 010°19'0 0.0
2014-Aug-27 16:31N 42°49' E 010°19'0 0.0
2014-Aug-27 15:22N 42°49' E 010°19'6 3.3
2014-Aug-27 13:29N 42°53' E 010°26'3 2.8
2014-Aug-27 12:14N 42°51' E 010°22'3 1.6
2014-Aug-27 10:28N 42°53' E 010°25'5 4.9
2014-Aug-27 09:23N 42°49' E 010°20'1 0.2
2014-Aug-27 05:17N 42°49' E 010°21'5 3.0
2014-Aug-27 03:34N 42°53' E 010°26'6 6.4
2014-Aug-27 02:33N 42°49' E 010°19'0 0.0
2014-Aug-27 01:34N 42°49' E 010°19'0 0.0
2014-Aug-26 20:32N 42°49' E 010°19'0 0.0
2014-Aug-26 19:32N 42°49' E 010°19'0 0.0
2014-Aug-26 18:33N 42°49' E 010°19'0 0.0
2014-Aug-26 17:29N 42°49' E 010°19'0 0.1
2014-Aug-26 15:24N 42°49' E 010°20'8 4.1
2014-Aug-26 13:34N 42°53' E 010°28'5 3.7
2014-Aug-26 12:14N 42°51' E 010°22'4 2.2
2014-Aug-26 10:32N 42°53' E 010°26'7 0.8
2014-Aug-26 02:18N 42°49' E 010°19'0 0.0
2014-Aug-26 01:33N 42°49' E 010°19'0 0.0
2014-Aug-26 00:21N 42°49' E 010°19'0 0.0
2014-Aug-23 22:12N 42°49' E 010°19'0 0.0
2014-Aug-23 21:29N 42°49' E 010°19'8 0.4
2014-Aug-23 03:33N 42°53' E 010°27'8 5.6
2014-Aug-23 02:13N 42°49' E 010°19'0 0.0
2014-Aug-23 01:33N 42°49' E 010°19'0 0.0
2014-Aug-23 00:33N 42°49' E 010°19'0 0.0
2014-Aug-22 23:33N 42°49' E 010°19'0 0.0
2014-Aug-22 22:33N 42°49' E 010°19'0 0.0
2014-Aug-22 21:33N 42°49' E 010°19'0 0.0
2014-Aug-22 20:33N 42°49' E 010°19'0 0.0
2014-Aug-22 19:32N 42°49' E 010°19'0 0.0
2014-Aug-22 18:26N 42°49' E 010°19'7 0.2
2014-Aug-21 13:33N 42°53' E 010°27'  
Track history (hours):
 
Tides and Currents Weather Stations Pressure Air Temp Water Temp Dewpoint Dewpoint Depression Visibility Wind Speed Wind Dir Waves Ship Positions

Oglasa

Last reported at 2014-Aug-30 15:34 UTC. Time now 2014-Aug-30 16:30 UTC.
Position N 42°53' E 010°28'.

Length 91 m; draft 3.6 m.

Type: Ship. MMSI: 247046800.

Date/timePositionNaut miles runAvg speedWind from/ knotsBaromVisibWave heightAir tempDewpointWater temp
2014-Aug-30 15:34N 42°53' E 010°28'8 6.7
2014-Aug-30 14:24N 42°49' E 010°19'1314.9
2014-Aug-30 13:33N 42°56' E 010°33'5 4.9
2014-Aug-30 12:33N 42°53' E 010°28'8 6.8
2014-Aug-30 11:26N 42°49' E 010°19'8 4.1
2014-Aug-30 09:33N 42°53' E 010°28'8 7.3
2014-Aug-30 08:30N 42°49' E 010°19'6 3.3
2014-Aug-30 06:34N 42°53' E 010°26'7 6.6
2014-Aug-30 05:33N 42°49' E 010°19'7 3.6
2014-Aug-30 03:33N 42°53' E 010°27'7 6.4
2014-Aug-30 02:26N 42°49' E 010°19'0 0.0
2014-Aug-30 01:33N 42°49' E 010°19'0 0.0
2014-Aug-30 00:33N 42°49' E 010°19'0 0.0
2014-Aug-29 22:32N 42°49' E 010°19'0 0.0
2014-Aug-29 21:33N 42°49' E 010°19'0 0.0
2014-Aug-29 20:28N 42°49' E 010°19'0 0.0
2014-Aug-29 19:32N 42°49' E 010°19'0 0.0
2014-Aug-29 18:25N 42°49' E 010°19'0 0.0
2014-Aug-29 17:27N 42°49' E 010°19'7 3.7
2014-Aug-29 15:34N 42°53' E 010°27'7 5.7
2014-Aug-29 14:23N 42°49' E 010°20'7 3.7
2014-Aug-29 12:34N 42°53' E 010°27'7 6.8
2014-Aug-29 11:31N 42°49' E 010°19'7 3.8
2014-Aug-29 09:34N 42°53' E 010°27'7 6.7
2014-Aug-29 08:27N 42°49' E 010°19'0 0.0
2014-Aug-28 15:26N 42°49' E 010°19'7 3.7
2014-Aug-28 13:33N 42°53' E 010°26'7 6.3
2014-Aug-28 12:28N 42°49' E 010°19'7 3.9
2014-Aug-28 10:33N 42°53' E 010°27'7 6.8
2014-Aug-28 09:28N 42°49' E 010°19'6 2.2
2014-Aug-28 06:34N 42°53' E 010°26'4 3.2
2014-Aug-28 05:15N 42°50' E 010°22'0 0.1
2014-Aug-28 03:13N 42°50' E 010°21'2 0.3
2014-Aug-27 19:30N 42°49' E 010°19'0 0.0
2014-Aug-27 18:34N 42°49' E 010°19'0 0.0
2014-Aug-27 17:33N 42°49' E 010°19'0 0.0
2014-Aug-27 16:31N 42°49' E 010°19'0 0.0
2014-Aug-27 15:22N 42°49' E 010°19'6 3.3
2014-Aug-27 13:29N 42°53' E 010°26'3 2.8
2014-Aug-27 12:14N 42°51' E 010°22'3 1.6
2014-Aug-27 10:28N 42°53' E 010°25'5 4.9
2014-Aug-27 09:23N 42°49' E 010°20'1 0.2
2014-Aug-27 05:17N 42°49' E 010°21'5 3.0
2014-Aug-27 03:34N 42°53' E 010°26'6 6.4
2014-Aug-27 02:33N 42°49' E 010°19'0 0.0
2014-Aug-27 01:34N 42°49' E 010°19'0 0.0
2014-Aug-26 20:32N 42°49' E 010°19'0 0.0
2014-Aug-26 19:32N 42°49' E 010°19'0 0.0
2014-Aug-26 18:33N 42°49' E 010°19'0 0.0
2014-Aug-26 17:29N 42°49' E 010°19'0 0.1
2014-Aug-26 15:24N 42°49' E 010°20'8 4.1
2014-Aug-26 13:34N 42°53' E 010°28'5 3.7
2014-Aug-26 12:14N 42°51' E 010°22'4 2.2
2014-Aug-26 10:32N 42°53' E 010°26'7 0.8
2014-Aug-26 02:18N 42°49' E 010°19'0 0.0
2014-Aug-26 01:33N 42°49' E 010°19'0 0.0
2014-Aug-26 00:21N 42°49' E 010°19'0 0.0
2014-Aug-23 22:12N 42°49' E 010°19'0 0.0
2014-Aug-23 21:29N 42°49' E 010°19'8 0.4
2014-Aug-23 03:33N 42°53' E 010°27'8 5.6
2014-Aug-23 02:13N 42°49' E 010°19'0 0.0
2014-Aug-23 01:33N 42°49' E 010°19'0 0.0
2014-Aug-23 00:33N 42°49' E 010°19'0 0.0
2014-Aug-22 23:33N 42°49' E 010°19'0 0.0
2014-Aug-22 22:33N 42°49' E 010°19'0 0.0
2014-Aug-22 21:33N 42°49' E 010°19'0 0.0
2014-Aug-22 20:33N 42°49' E 010°19'0 0.0
2014-Aug-22 19:32N 42°49' E 010°19'0 0.0
2014-Aug-22 18:26N 42°49' E 010°19'7 0.2
2014-Aug-21 13:33N 42°53' E 010°27'  

Dump ship's entire track history